Time;durP1;ratioP1;P1;durP2;ratioP2;P2;SDS_P1;SDS_P2;PMS_P1;PMS_P2;Temp;Humidity;BMP_temperature;BMP_pressure;BME280_temperature;BME280_humidity;BME280_pressure;Samples;Min_cycle;Max_cycle;Signal;HPM_P1;HPM_P2
2023/03/05 00:00:04;;;;;;;63.90;27.30;;;;;;;2.34;58.44;100652.14;107442;1257;108697;-67
2023/03/05 00:03:00;;;;;;;55.60;27.40;;;;;;;2.39;57.91;100652.39;107447;1257;97816;-67
2023/03/05 00:05:28;;;;;;;62.60;27.80;;;;;;;2.46;57.96;100650.94;107450;1255;97819;-66
2023/03/05 00:07:57;;;;;;;63.20;28.80;;;;;;;2.56;58.00;100644.90;107435;1254;111383;-66
2023/03/05 00:10:25;;;;;;;60.40;28.60;;;;;;;2.64;58.14;100643.55;107482;1254;109711;-68
2023/03/05 00:12:53;;;;;;;63.60;30.10;;;;;;;2.68;58.19;100646.71;107377;1254;106765;-66
2023/03/05 00:15:22;;;;;;;57.80;26.80;;;;;;;2.70;58.96;100643.41;107414;1260;97841;-66
2023/03/05 00:17:50;;;;;;;59.60;28.30;;;;;;;2.67;59.62;100640.17;107441;1254;98620;-66
2023/03/05 00:20:18;;;;;;;62.20;29.30;;;;;;;2.64;59.52;100639.28;107428;1255;112419;-66
2023/03/05 00:22:47;;;;;;;63.40;28.70;;;;;;;2.60;60.02;100636.14;107425;1254;109985;-66
2023/03/05 00:25:15;;;;;;;56.90;27.70;;;;;;;2.59;59.68;100637.84;107360;1257;109359;-67
2023/03/05 00:27:43;;;;;;;58.60;27.70;;;;;;;2.64;59.50;100636.98;107511;1254;97828;-65
2023/03/05 00:30:13;;;;;;;58.10;28.70;;;;;;;2.73;59.31;100639.34;107604;1254;98350;-66
2023/03/05 00:32:41;;;;;;;60.40;27.80;;;;;;;2.82;58.98;100638.42;107633;1254;111188;-66
2023/03/05 00:35:11;;;;;;;66.50;28.90;;;;;;;2.93;59.04;100637.45;107520;1254;109416;-68
2023/03/05 00:37:40;;;;;;;61.40;29.00;;;;;;;3.03;58.87;100636.69;107448;1254;108421;-68
2023/03/05 00:40:09;;;;;;;52.50;26.30;;;;;;;3.09;58.70;100633.10;107308;1254;97866;-65
2023/03/05 00:42:38;;;;;;;56.40;26.50;;;;;;;3.14;58.59;100629.85;107359;1258;98386;-66
2023/03/05 00:45:08;;;;;;;57.80;27.60;;;;;;;3.16;58.49;100634.70;107266;1257;111958;-67
2023/03/05 00:47:38;;;;;;;59.10;26.40;;;;;;;3.10;58.67;100632.34;107554;1254;109217;-67
2023/03/05 00:50:08;;;;;;;54.60;26.30;;;;;;;3.07;58.58;100633.45;107436;1253;107655;-66
2023/03/05 00:52:36;;;;;;;55.10;26.80;;;;;;;2.99;58.80;100634.41;107473;1257;97831;-67
2023/03/05 00:55:05;;;;;;;54.30;27.60;;;;;;;2.91;59.17;100635.27;107329;1254;98382;-68
2023/03/05 00:57:33;;;;;;;54.80;26.50;;;;;;;2.81;59.26;100629.09;107463;1257;112074;-67
2023/03/05 01:00:03;;;;;;;55.60;27.90;;;;;;;2.77;59.29;100628.11;107350;1255;110409;-67
2023/03/05 01:02:32;;;;;;;60.40;28.00;;;;;;;2.75;59.28;100626.79;107456;1254;107679;-67
2023/03/05 01:05:02;;;;;;;57.70;28.60;;;;;;;2.80;58.93;100626.51;107419;1258;97970;-67
2023/03/05 01:07:30;;;;;;;53.20;27.90;;;;;;;2.86;58.94;100629.17;107499;1254;98401;-67
2023/03/05 01:09:59;;;;;;;54.40;26.20;;;;;;;2.91;58.87;100631.02;107332;1260;111366;-66
2023/03/05 01:12:27;;;;;;;58.00;27.70;;;;;;;2.91;59.02;100629.08;107164;1257;110334;-66
2023/03/05 01:14:56;;;;;;;60.20;29.10;;;;;;;2.90;58.65;100625.05;107230;1254;108155;-66
2023/03/05 01:17:24;;;;;;;60.30;28.70;;;;;;;2.91;58.52;100628.00;107433;1254;97929;-67
2023/03/05 01:19:52;;;;;;;54.90;28.60;;;;;;;2.91;58.24;100630.31;107464;1254;97899;-66
2023/03/05 01:22:21;;;;;;;57.70;27.20;;;;;;;2.92;57.90;100629.20;107316;1256;112014;-67
2023/03/05 01:24:49;;;;;;;53.70;27.80;;;;;;;2.92;58.03;100631.14;107351;1259;109806;-67
2023/03/05 01:27:21;;;;;;;60.10;28.30;;;;;;;2.82;58.31;100632.96;107420;1254;109030;-65
2023/03/05 01:29:50;;;;;;;71.70;31.50;;;;;;;2.71;58.38;100632.36;107449;1255;97833;-66
2023/03/05 01:32:18;;;;;;;56.10;29.40;;;;;;;2.62;58.94;100627.36;107298;1254;97714;-65
2023/03/05 01:34:46;;;;;;;66.00;31.60;;;;;;;2.53;58.98;100625.05;107516;1254;110727;-65
2023/03/05 01:37:14;;;;;;;65.00;29.00;;;;;;;2.45;58.95;100624.44;107353;1258;110143;-69
2023/03/05 01:39:44;;;;;;;63.80;30.50;;;;;;;2.41;59.03;100628.02;107455;1254;108318;-67
2023/03/05 01:42:12;;;;;;;70.60;30.30;;;;;;;2.39;59.26;100633.45;107454;1254;97839;-66
2023/03/05 01:45:11;;;;;;;63.70;30.20;;;;;;;2.36;59.10;100630.09;107422;1254;98471;-65
2023/03/05 01:47:40;;;;;;;62.20;28.50;;;;;;;2.32;59.41;100631.20;107311;1257;112357;-66
2023/03/05 01:50:12;;;;;;;61.30;28.50;;;;;;;2.30;59.18;100625.80;107437;1254;108957;-64
2023/03/05 01:52:48;;;;;;;68.00;30.20;;;;;;;2.28;59.32;100625.77;107264;1254;108102;-67
2023/03/05 01:55:21;;;;;;;72.40;31.10;;;;;;;2.23;59.00;100627.42;107423;1254;97835;-70
2023/03/05 01:57:56;;;;;;;63.20;30.40;;;;;;;2.21;58.98;100630.89;107354;1254;97828;-66
2023/03/05 02:00:44;;;;;;;63.00;29.00;;;;;;;2.22;59.23;100633.88;107335;1260;110767;-65
2023/03/05 02:03:13;;;;;;;61.00;29.60;;;;;;;2.19;59.29;100635.46;107472;1254;109733;-67
2023/03/05 02:05:43;;;;;;;67.40;30.40;;;;;;;2.17;58.97;100637.30;107446;1254;108362;-67
2023/03/05 02:08:15;;;;;;;68.10;28.20;;;;;;;2.17;58.96;100639.95;107314;1254;97810;-65
2023/03/05 02:10:55;;;;;;;67.20;30.90;;;;;;;2.16;59.22;100645.86;107321;1254;97847;-66
2023/03/05 02:13:30;;;;;;;61.00;28.00;;;;;;;2.13;59.03;100643.91;107322;1257;113010;-67
2023/03/05 02:16:00;;;;;;;62.10;28.00;;;;;;;2.10;59.58;100646.00;107432;1254;110217;-66
2023/03/05 02:18:29;;;;;;;62.70;30.00;;;;;;;2.04;59.48;100650.94;107412;1254;108336;-67
2023/03/05 02:21:03;;;;;;;59.80;28.70;;;;;;;1.97;59.78;100649.94;107422;1254;97850;-66
2023/03/05 02:23:35;;;;;;;58.40;27.30;;;;;;;1.91;59.87;100652.57;107341;1254;98650;-67
2023/03/05 02:26:09;;;;;;;63.90;30.30;;;;;;;1.85;59.65;100656.04;107453;1254;112365;-65
2023/03/05 02:28:42;;;;;;;67.60;30.20;;;;;;;1.80;59.78;100658.23;107500;1254;109776;-67
2023/03/05 02:31:23;;;;;;;60.60;29.30;;;;;;;1.77;59.80;100655.24;107430;1254;107702;-66
2023/03/05 02:33:52;;;;;;;62.70;29.70;;;;;;;1.73;60.02;100659.02;107444;1254;97942;-66
2023/03/05 02:36:22;;;;;;;65.50;30.20;;;;;;;1.69;60.23;100656.72;107432;1254;97704;-66
2023/03/05 02:38:52;;;;;;;63.80;31.10;;;;;;;1.65;59.98;100658.88;107458;1254;111949;-66
2023/03/05 02:41:21;;;;;;;59.00;29.10;;;;;;;1.64;60.20;100662.48;107357;1254;109017;-66
2023/03/05 02:43:50;;;;;;;65.40;28.20;;;;;;;1.64;59.85;100662.98;107562;1254;107172;-66
2023/03/05 02:46:18;;;;;;;60.90;29.40;;;;;;;1.63;59.97;100665.90;107595;1254;97832;-68
2023/03/05 02:48:48;;;;;;;56.20;27.40;;;;;;;1.62;60.00;100665.97;107601;1254;98436;-66
2023/03/05 02:51:18;;;;;;;66.70;29.30;;;;;;;1.59;59.92;100667.14;107424;1254;111843;-67
2023/03/05 02:53:47;;;;;;;55.70;29.10;;;;;;;1.55;59.99;100669.66;107480;1254;109168;-66
2023/03/05 02:56:16;;;;;;;60.20;29.30;;;;;;;1.52;59.96;100668.06;107426;1254;109084;-66
2023/03/05 02:58:45;;;;;;;66.50;30.10;;;;;;;1.49;60.12;100671.94;107456;1254;97820;-67
2023/03/05 03:01:13;;;;;;;63.50;28.30;;;;;;;1.43;60.21;100678.04;107370;1254;98379;-67
2023/03/05 03:03:41;;;;;;;59.80;28.10;;;;;;;1.39;60.28;100679.52;107471;1254;112368;-66
2023/03/05 03:06:10;;;;;;;62.90;29.40;;;;;;;1.38;60.23;100678.15;107362;1254;109697;-66
2023/03/05 03:08:38;;;;;;;61.60;28.60;;;;;;;1.39;60.35;100675.77;107328;1254;106611;-66
2023/03/05 03:11:09;;;;;;;65.90;29.30;;;;;;;1.40;60.51;100671.12;107381;1254;97840;-67
2023/03/05 03:13:39;;;;;;;62.20;29.30;;;;;;;1.40;60.64;100671.14;107462;1254;97915;-65
2023/03/05 03:16:10;;;;;;;62.10;28.60;;;;;;;1.38;60.78;100671.39;107469;1254;111451;-68
2023/03/05 03:18:38;;;;;;;64.30;28.80;;;;;;;1.38;60.80;100671.94;107447;1257;110326;-66
2023/03/05 03:21:07;;;;;;;58.80;27.30;;;;;;;1.39;60.75;100669.58;107275;1256;108541;-67
2023/03/05 03:23:35;;;;;;;59.80;29.60;;;;;;;1.42;60.97;100670.48;107411;1254;97851;-67
2023/03/05 03:26:04;;;;;;;67.30;30.40;;;;;;;1.44;61.00;100670.40;107414;1257;98350;-65
2023/03/05 03:28:33;;;;;;;60.70;27.00;;;;;;;1.43;60.99;100668.71;107416;1254;112910;-67
2023/03/05 03:31:01;;;;;;;68.80;27.90;;;;;;;1.43;61.00;100669.58;107415;1254;109597;-66
2023/03/05 03:33:30;;;;;;;63.80;27.90;;;;;;;1.41;61.00;100670.36;107431;1257;108258;-63
2023/03/05 03:35:59;;;;;;;55.30;28.10;;;;;;;1.39;60.97;100673.32;107421;1254;98450;-66
2023/03/05 03:38:27;;;;;;;63.10;27.60;;;;;;;1.37;61.07;100674.80;107454;1254;98491;-67
2023/03/05 03:40:56;;;;;;;55.50;27.50;;;;;;;1.36;61.10;100674.70;107382;1254;111117;-66
2023/03/05 03:43:24;;;;;;;54.40;27.00;;;;;;;1.36;61.21;100674.84;107541;1254;110153;-67
2023/03/05 03:45:53;;;;;;;59.20;29.40;;;;;;;1.38;61.28;100677.44;107416;1254;108351;-65
2023/03/05 03:48:22;;;;;;;55.40;26.60;;;;;;;1.37;61.17;100683.70;107450;1254;97915;-66
2023/03/05 03:50:51;;;;;;;63.30;27.40;;;;;;;1.35;61.10;100682.88;107464;1254;97928;-65
2023/03/05 03:53:19;;;;;;;63.90;27.80;;;;;;;1.34;61.27;100681.31;107384;1254;111953;-66
2023/03/05 03:55:48;;;;;;;62.70;28.00;;;;;;;1.34;61.26;100686.80;107432;1254;110201;-65
2023/03/05 03:58:16;;;;;;;66.40;28.70;;;;;;;1.32;61.26;100687.80;107218;1260;107287;-66
2023/03/05 04:00:45;;;;;;;58.60;26.10;;;;;;;1.29;61.17;100688.66;107413;1254;97928;-67
2023/03/05 04:03:13;;;;;;;58.50;28.40;;;;;;;1.29;61.24;100687.44;107296;1254;97836;-66
2023/03/05 04:05:41;;;;;;;62.60;28.90;;;;;;;1.29;61.28;100688.33;107407;1257;111101;-66
2023/03/05 04:08:11;;;;;;;55.40;27.80;;;;;;;1.25;61.25;100683.57;107420;1254;108725;-66
2023/03/05 04:10:39;;;;;;;65.40;28.40;;;;;;;1.21;61.29;100686.75;107454;1254;108321;-66
2023/03/05 04:13:08;;;;;;;60.70;27.90;;;;;;;1.17;61.61;100691.56;107407;1254;97816;-67
2023/03/05 04:15:36;;;;;;;65.40;27.60;;;;;;;1.11;62.03;100695.92;107427;1254;97724;-66
2023/03/05 04:18:05;;;;;;;58.10;27.30;;;;;;;1.08;61.94;100698.34;107414;1254;111831;-66
2023/03/05 04:20:34;;;;;;;69.30;29.80;;;;;;;1.10;62.11;100694.57;107451;1254;109900;-66
2023/03/05 04:23:02;;;;;;;59.70;27.50;;;;;;;1.13;62.11;100703.27;107400;1254;107854;-66
2023/03/05 04:25:35;;;;;;;59.20;29.40;;;;;;;1.12;62.10;100705.59;107526;1254;97843;-65
2023/03/05 04:28:04;;;;;;;63.60;29.60;;;;;;;1.15;62.24;100711.30;107413;1254;98449;-67
2023/03/05 04:30:32;;;;;;;60.50;28.50;;;;;;;1.17;62.28;100719.28;107444;1254;112400;-66
2023/03/05 04:33:01;;;;;;;59.70;28.10;;;;;;;1.21;62.26;100721.25;107327;1254;109591;-66
2023/03/05 04:35:30;;;;;;;65.40;28.30;;;;;;;1.24;62.45;100730.61;107296;1254;108746;-66
2023/03/05 04:37:58;;;;;;;61.80;27.20;;;;;;;1.27;62.27;100729.38;107404;1254;97936;-65
2023/03/05 04:40:27;;;;;;;61.10;27.30;;;;;;;1.32;62.33;100731.07;107421;1254;98473;-67
2023/03/05 04:42:55;;;;;;;59.00;27.70;;;;;;;1.36;62.38;100732.48;107438;1254;111823;-66
2023/03/05 04:45:24;;;;;;;60.30;30.70;;;;;;;1.42;62.23;100736.09;107454;1254;109967;-67
2023/03/05 04:47:53;;;;;;;58.40;28.00;;;;;;;1.46;62.15;100730.76;107479;1257;108756;-67
2023/03/05 04:50:21;;;;;;;61.60;27.90;;;;;;;1.48;62.05;100733.66;107572;1254;97828;-66
2023/03/05 04:52:50;;;;;;;70.20;30.90;;;;;;;1.49;62.05;100731.13;107591;1256;98367;-66
2023/03/05 04:55:19;;;;;;;62.60;29.10;;;;;;;1.49;62.12;100729.19;107494;1254;111658;-65
2023/03/05 04:57:47;;;;;;;60.20;28.10;;;;;;;1.47;62.04;100735.64;107480;1254;109320;-68
2023/03/05 05:00:17;;;;;;;58.20;30.00;;;;;;;1.44;61.84;100742.35;107524;1254;109275;-65
2023/03/05 05:02:47;;;;;;;66.40;27.60;;;;;;;1.41;62.06;100741.41;107612;1256;97834;-68
2023/03/05 05:05:18;;;;;;;59.20;29.20;;;;;;;1.40;61.99;100744.30;107605;1253;97791;-67
2023/03/05 05:07:47;;;;;;;66.40;29.10;;;;;;;1.38;61.84;100745.44;107630;1256;111574;-67
2023/03/05 05:10:16;;;;;;;63.90;29.20;;;;;;;1.40;61.70;100743.23;107549;1254;110039;-68
2023/03/05 05:12:44;;;;;;;71.50;30.40;;;;;;;1.42;61.94;100750.41;107428;1254;108544;-67
2023/03/05 05:15:13;;;;;;;61.00;30.10;;;;;;;1.41;62.33;100753.77;107355;1259;97830;-66
2023/03/05 05:17:42;;;;;;;71.00;32.20;;;;;;;1.42;62.30;100752.53;107436;1254;98437;-66
2023/03/05 05:20:13;;;;;;;95.20;42.00;;;;;;;1.42;62.15;100765.25;107361;1254;111954;-66
2023/03/05 05:22:42;;;;;;;84.60;41.00;;;;;;;1.41;62.25;100764.38;107426;1254;110005;-65
2023/03/05 05:25:11;;;;;;;78.00;36.90;;;;;;;1.44;62.39;100767.06;107380;1254;107743;-66
2023/03/05 05:27:40;;;;;;;77.00;36.10;;;;;;;1.48;62.17;100771.13;107448;1254;98486;-66
2023/03/05 05:30:09;;;;;;;145.90;63.90;;;;;;;1.52;62.15;100771.41;107378;1254;98382;-66
2023/03/05 05:32:37;;;;;;;195.70;85.50;;;;;;;1.55;62.19;100770.23;107464;1254;111303;-65
2023/03/05 05:35:06;;;;;;;112.10;55.50;;;;;;;1.58;62.00;100766.55;107437;1254;109778;-66
2023/03/05 05:37:35;;;;;;;88.20;41.90;;;;;;;1.61;62.17;100770.48;107407;1254;108059;-66
2023/03/05 05:40:05;;;;;;;86.90;41.00;;;;;;;1.64;62.38;100775.80;107444;1253;98333;-65
2023/03/05 05:42:33;;;;;;;98.50;43.30;;;;;;;1.65;62.46;100773.96;107452;1254;97831;-67
2023/03/05 05:45:04;;;;;;;74.60;34.70;;;;;;;1.69;62.51;100771.83;107377;1254;111497;-65
2023/03/05 05:47:33;;;;;;;71.70;33.30;;;;;;;1.72;62.29;100773.80;107463;1254;108936;-66
2023/03/05 05:50:17;;;;;;;68.40;33.70;;;;;;;1.74;62.29;100773.89;107488;1254;107480;-70
2023/03/05 05:53:26;;;;;;;78.80;34.60;;;;;;;1.76;62.52;100774.64;107382;1254;97917;-70
2023/03/05 05:59:50;;;;;;;68.50;32.20;;;;;;;1.89;62.18;100778.92;107175;1256;111723;-64
2023/03/05 06:02:18;;;;;;;81.50;36.80;;;;;;;1.95;62.25;100777.56;107418;1256;109833;-66
2023/03/05 06:04:58;;;;;;;83.90;37.00;;;;;;;1.99;62.26;100769.55;107255;1254;109286;-68
2023/03/05 06:07:53;;;;;;;68.60;33.20;;;;;;;2.05;62.53;100773.52;107209;1254;97828;-66
2023/03/05 06:10:22;;;;;;;71.20;34.90;;;;;;;2.09;62.50;100775.06;107435;1257;98348;-67
2023/03/05 06:16:24;;;;;;;77.90;33.30;;;;;;;2.18;62.65;100779.90;107396;1253;109874;-66
2023/03/05 06:18:53;;;;;;;66.60;31.10;;;;;;;2.26;62.62;100785.48;107158;1255;108517;-68
2023/03/05 06:21:22;;;;;;;82.20;34.90;;;;;;;2.30;62.56;100788.78;107445;1253;97839;-66
2023/03/05 06:23:51;;;;;;;68.50;33.10;;;;;;;2.35;62.72;100791.89;107369;1254;98331;-66
2023/03/05 06:26:47;;;;;;;72.70;33.20;;;;;;;2.38;62.55;100796.20;107416;1254;111033;-66
2023/03/05 06:29:51;;;;;;;59.90;28.60;;;;;;;2.44;62.52;100795.17;107305;1257;110010;-65
2023/03/05 06:32:19;;;;;;;62.50;30.80;;;;;;;2.51;62.38;100792.27;107460;1254;107268;-65
2023/03/05 06:34:49;;;;;;;68.90;32.20;;;;;;;2.58;62.24;100792.98;107179;1254;97848;-67
2023/03/05 06:37:18;;;;;;;66.80;34.50;;;;;;;2.66;61.96;100792.73;107507;1254;99352;-65
2023/03/05 06:39:46;;;;;;;63.70;31.30;;;;;;;2.73;61.93;100791.44;107482;1254;111381;-64
2023/03/05 06:42:18;;;;;;;60.10;28.80;;;;;;;2.80;61.72;100787.29;107444;1254;110849;-66
2023/03/05 06:44:46;;;;;;;52.10;26.40;;;;;;;2.89;61.81;100789.69;107583;1254;109499;-67
2023/03/05 06:47:16;;;;;;;48.30;23.70;;;;;;;2.94;61.49;100793.80;107595;1254;97784;-66
2023/03/05 06:49:44;;;;;;;37.30;17.10;;;;;;;3.01;61.29;100796.45;107428;1256;97838;-67
2023/03/05 06:52:12;;;;;;;30.40;14.80;;;;;;;3.06;60.86;100800.05;107448;1254;111872;-66
2023/03/05 06:54:41;;;;;;;22.80;11.90;;;;;;;3.14;60.16;100800.84;107435;1254;109859;-67
2023/03/05 06:57:09;;;;;;;24.00;10.50;;;;;;;3.20;59.37;100801.91;107440;1257;108576;-66
2023/03/05 06:59:38;;;;;;;16.30;8.30;;;;;;;3.26;59.04;100804.21;107397;1257;97742;-66
2023/03/05 07:02:10;;;;;;;15.60;7.10;;;;;;;3.34;58.22;100796.89;107424;1257;97886;-65
2023/03/05 07:04:39;;;;;;;13.40;6.90;;;;;;;3.40;57.67;100802.92;107408;1257;112481;-68
2023/03/05 07:07:07;;;;;;;12.00;5.60;;;;;;;3.45;56.65;100807.92;107405;1257;108945;-67
2023/03/05 07:09:41;;;;;;;10.90;5.70;;;;;;;3.51;56.03;100811.11;107342;1257;108299;-67
2023/03/05 07:12:10;;;;;;;14.20;6.30;;;;;;;3.60;55.31;100809.41;107369;1257;97928;-65
2023/03/05 07:14:39;;;;;;;25.60;6.30;;;;;;;3.70;54.86;100808.59;107405;1256;97822;-65
2023/03/05 07:17:07;;;;;;;15.40;5.50;;;;;;;3.82;54.49;100817.17;107347;1257;112419;-66
2023/03/05 07:19:37;;;;;;;12.10;5.10;;;;;;;3.91;53.55;100813.38;107362;1259;109939;-67
2023/03/05 07:22:06;;;;;;;12.30;5.40;;;;;;;4.00;52.41;100818.54;107194;1256;106829;-66
2023/03/05 07:24:35;;;;;;;15.90;5.80;;;;;;;4.09;51.97;100817.11;107286;1257;97902;-67
2023/03/05 07:27:04;;;;;;;14.00;5.10;;;;;;;4.16;51.28;100817.91;107403;1257;97806;-67
2023/03/05 07:29:32;;;;;;;12.80;5.90;;;;;;;4.23;50.43;100811.28;107396;1257;111056;-67
2023/03/05 07:32:01;;;;;;;14.30;8.20;;;;;;;4.28;49.89;100812.06;107392;1255;109818;-67
2023/03/05 07:34:30;;;;;;;12.00;4.80;;;;;;;4.34;49.27;100814.02;107388;1256;108642;-66
2023/03/05 07:36:58;;;;;;;12.60;5.20;;;;;;;4.40;48.57;100815.59;107386;1257;99477;-66
2023/03/05 07:39:27;;;;;;;12.00;3.60;;;;;;;4.48;48.77;100818.11;107382;1256;97842;-67
2023/03/05 07:41:55;;;;;;;6.60;3.30;;;;;;;4.54;48.43;100821.48;107415;1257;111096;-67
2023/03/05 07:44:27;;;;;;;6.90;3.40;;;;;;;4.59;47.96;100823.45;107315;1257;109843;-67
2023/03/05 07:46:56;;;;;;;8.10;4.00;;;;;;;4.63;47.23;100826.99;107147;1256;109398;-70
2023/03/05 07:49:24;;;;;;;12.20;3.60;;;;;;;4.66;43.94;100822.17;107342;1256;97845;-69
2023/03/05 07:51:53;;;;;;;6.90;3.10;;;;;;;4.59;42.18;100822.42;107300;1256;99119;-67
2023/03/05 07:54:21;;;;;;;34.00;5.10;;;;;;;4.50;42.49;100824.21;107391;1256;111244;-68
2023/03/05 07:56:50;;;;;;;12.40;2.70;;;;;;;4.44;43.67;100824.06;107482;1254;110799;-68
2023/03/05 07:59:19;;;;;;;5.90;2.50;;;;;;;4.45;43.76;100826.27;107461;1254;107177;-67
2023/03/05 08:01:48;;;;;;;5.60;3.00;;;;;;;4.49;44.22;100828.34;107403;1254;97811;-68
2023/03/05 08:04:16;;;;;;;6.40;2.40;;;;;;;4.54;43.71;100828.08;107423;1254;100280;-67
2023/03/05 08:06:45;;;;;;;4.50;2.30;;;;;;;4.58;43.94;100824.42;107419;1254;111346;-68
2023/03/05 08:09:15;;;;;;;4.30;2.10;;;;;;;4.63;43.55;100823.25;107429;1254;109864;-67
2023/03/05 08:11:47;;;;;;;5.60;2.30;;;;;;;4.65;43.06;100821.14;107294;1258;108110;-66
2023/03/05 08:14:17;;;;;;;6.70;2.40;;;;;;;4.68;42.76;100819.85;107330;1254;97727;-67
2023/03/05 08:16:50;;;;;;;10.00;2.60;;;;;;;4.67;42.50;100825.66;107356;1254;97859;-66
2023/03/05 08:19:20;;;;;;;13.30;2.70;;;;;;;4.65;41.77;100828.77;107449;1254;112323;-66
2023/03/05 08:21:48;;;;;;;8.20;2.50;;;;;;;4.60;42.05;100823.41;107464;1254;109118;-67
2023/03/05 08:24:17;;;;;;;8.80;2.60;;;;;;;4.58;42.56;100822.81;107445;1254;108624;-65
2023/03/05 08:26:45;;;;;;;17.90;2.80;;;;;;;4.61;42.34;100815.75;107453;1254;97791;-66
2023/03/05 08:29:13;;;;;;;7.20;2.90;;;;;;;4.60;42.34;100814.56;107527;1254;97819;-67
2023/03/05 08:31:45;;;;;;;11.20;3.30;;;;;;;4.60;42.24;100811.34;107479;1254;111782;-68
2023/03/05 08:34:13;;;;;;;16.40;3.70;;;;;;;4.61;41.61;100812.31;107443;1254;110325;-66
2023/03/05 08:36:42;;;;;;;6.40;3.20;;;;;;;4.61;41.57;100814.83;107376;1254;108694;-67
2023/03/05 08:39:10;;;;;;;9.00;3.70;;;;;;;4.64;41.46;100810.02;107390;1254;97701;-66
2023/03/05 08:41:39;;;;;;;8.10;2.80;;;;;;;4.65;41.55;100816.15;107430;1254;98450;-67
2023/03/05 08:44:08;;;;;;;10.40;4.40;;;;;;;4.63;40.78;100812.41;107499;1257;110706;-65
2023/03/05 08:46:39;;;;;;;15.50;2.70;;;;;;;4.63;40.53;100813.80;107456;1254;109112;-66
2023/03/05 08:49:09;;;;;;;15.40;3.20;;;;;;;4.60;40.77;100816.48;107455;1254;107504;-66
2023/03/05 08:51:38;;;;;;;5.90;3.30;;;;;;;4.57;40.32;100814.52;107450;1254;97829;-66
2023/03/05 08:54:07;;;;;;;7.70;3.50;;;;;;;4.54;40.68;100815.77;107441;1256;97841;-66
2023/03/05 08:56:35;;;;;;;9.40;3.60;;;;;;;4.57;41.20;100817.90;107448;1254;112837;-65
2023/03/05 08:59:05;;;;;;;4.90;2.60;;;;;;;4.64;41.45;100813.95;107487;1254;108810;-66
2023/03/05 09:01:33;;;;;;;12.30;2.30;;;;;;;4.70;41.20;100810.16;107480;1254;108550;-66
2023/03/05 09:04:02;;;;;;;4.90;2.30;;;;;;;4.74;39.64;100806.41;107466;1257;97695;-66
2023/03/05 09:06:33;;;;;;;8.80;2.80;;;;;;;4.72;39.60;100803.86;107471;1254;97886;-65
2023/03/05 09:09:01;;;;;;;10.80;2.70;;;;;;;4.70;39.51;100801.45;107411;1257;110300;-67
2023/03/05 09:11:30;;;;;;;12.80;2.90;;;;;;;4.68;39.69;100799.61;107451;1257;110161;-64
2023/03/05 09:13:58;;;;;;;10.50;3.40;;;;;;;4.65;40.02;100801.58;107414;1254;108883;-67
2023/03/05 09:16:26;;;;;;;15.50;2.40;;;;;;;4.68;40.27;100799.10;107425;1257;97950;-68
2023/03/05 09:18:55;;;;;;;5.40;2.30;;;;;;;4.73;39.34;100795.58;107447;1254;98372;-67
2023/03/05 09:21:24;;;;;;;11.40;2.50;;;;;;;4.72;38.94;100790.67;107484;1254;111879;-66
2023/03/05 09:23:58;;;;;;;5.10;2.60;;;;;;;4.77;39.38;100795.70;107476;1254;109835;-65
2023/03/05 09:26:26;;;;;;;;;;;;;;;4.85;38.77;100792.02;107409;1254;108235;-65
2023/03/05 09:28:55;;;;;;;5.30;2.30;;;;;;;4.89;38.89;100790.48;107396;1254;97967;-65
2023/03/05 09:31:24;;;;;;;5.20;2.40;;;;;;;4.93;37.98;100790.27;107444;1254;97894;-65
2023/03/05 09:33:52;;;;;;;4.00;2.00;;;;;;;4.94;37.64;100788.19;107433;1257;112482;-65
2023/03/05 09:36:27;;;;;;;13.20;1.90;;;;;;;4.94;38.61;100790.37;107426;1254;109468;-65
2023/03/05 09:38:57;;;;;;;6.60;2.10;;;;;;;4.97;38.73;100788.72;107399;1257;106827;-65
2023/03/05 09:41:36;;;;;;;7.20;2.00;;;;;;;5.01;38.78;100789.20;107424;1254;97851;-65
2023/03/05 09:44:10;;;;;;;7.10;2.00;;;;;;;5.03;38.98;100787.83;107427;1257;97823;-66
2023/03/05 09:47:24;;;;;;;6.30;1.70;;;;;;;5.05;38.54;100785.92;107442;1254;112199;-66
2023/03/05 09:50:37;;;;;;;6.70;2.10;;;;;;;5.04;38.50;100785.45;107468;1253;109145;-67
2023/03/05 09:53:24;;;;;;;4.20;2.10;;;;;;;5.05;38.82;100784.67;106526;1257;683530;-66
2023/03/05 09:56:09;;;;;;;7.90;1.90;;;;;;;5.05;38.38;100782.23;107380;1257;97809;-67
2023/03/05 09:58:40;;;;;;;6.10;2.00;;;;;;;5.03;37.53;100781.56;107417;1254;97708;-65
2023/03/05 10:01:14;;;;;;;5.50;2.00;;;;;;;4.98;37.89;100786.52;107414;1254;111844;-66
2023/03/05 10:04:04;;;;;;;9.90;2.30;;;;;;;4.99;38.27;100785.03;107311;1259;110448;-66
2023/03/05 10:06:57;;;;;;;11.70;2.10;;;;;;;5.02;38.61;100785.05;107436;1257;108562;-66
2023/03/05 10:09:49;;;;;;;7.30;2.30;;;;;;;5.06;38.50;100775.94;107259;1254;98038;-67
2023/03/05 10:12:24;;;;;;;5.30;2.20;;;;;;;5.06;37.82;100774.48;107415;1254;98841;-66
2023/03/05 10:14:53;;;;;;;10.00;2.40;;;;;;;5.01;37.31;100771.78;107418;1254;111928;-67
2023/03/05 10:17:21;;;;;;;6.40;2.10;;;;;;;4.97;38.10;100767.04;107400;1257;109756;-64
2023/03/05 10:20:06;;;;;;;23.20;3.20;;;;;;;4.99;37.79;100764.58;107405;1254;107920;-65
2023/03/05 10:22:52;;;;;;;;;;;;;;;5.04;38.40;100758.07;107510;1253;97851;-67
2023/03/05 10:25:51;;;;;;;5.60;2.30;;;;;;;5.09;37.65;100750.80;107529;1254;98389;-66
2023/03/05 10:28:44;;;;;;;7.40;2.50;;;;;;;5.08;37.55;100751.94;107405;1254;112141;-66
2023/03/05 10:31:37;;;;;;;7.80;2.00;;;;;;;5.05;37.46;100755.37;107403;1254;112890;-67
2023/03/05 10:34:26;;;;;;;15.70;3.50;;;;;;;4.99;37.11;100749.33;107423;1254;108786;-66
2023/03/05 10:37:17;;;;;;;17.10;3.00;;;;;;;4.91;36.83;100744.14;107456;1258;97817;-67
2023/03/05 10:40:14;;;;;;;8.40;2.30;;;;;;;4.81;37.33;100747.61;107448;1258;98386;-67
2023/03/05 10:42:52;;;;;;;13.00;2.20;;;;;;;4.77;38.03;100746.83;107427;1256;111413;-67
2023/03/05 10:45:28;;;;;;;15.10;4.70;;;;;;;4.76;38.16;100748.35;107528;1254;110135;-68
2023/03/05 10:48:20;;;;;;;8.70;3.10;;;;;;;4.71;38.00;100746.70;107536;1252;108170;-66
2023/03/05 10:51:01;;;;;;;6.70;2.30;;;;;;;4.68;38.28;100740.27;107376;1254;97854;-65
2023/03/05 10:53:58;;;;;;;8.60;3.50;;;;;;;4.75;38.50;100736.33;107509;1254;98359;-68
2023/03/05 10:56:30;;;;;;;5.90;2.90;;;;;;;4.88;38.31;100731.94;107373;1254;112016;-65
2023/03/05 10:58:59;;;;;;;11.40;2.50;;;;;;;4.98;37.67;100726.44;107456;1253;110294;-66
2023/03/05 11:01:30;;;;;;;11.60;2.60;;;;;;;5.04;37.84;100718.77;107434;1254;108099;-65
2023/03/05 11:04:09;;;;;;;11.70;2.40;;;;;;;5.10;37.57;100714.52;107445;1254;97825;-68
2023/03/05 11:06:46;;;;;;;18.00;3.10;;;;;;;5.13;38.18;100713.22;107475;1254;97730;-65
2023/03/05 11:09:31;;;;;;;7.80;2.50;;;;;;;5.19;37.90;100713.88;107459;1254;111995;-66
2023/03/05 11:12:05;;;;;;;5.50;3.10;;;;;;;5.11;36.37;100715.27;107357;1253;110062;-64
2023/03/05 11:14:37;;;;;;;5.00;2.60;;;;;;;4.99;37.05;100713.21;107413;1254;107874;-68
2023/03/05 11:17:23;;;;;;;10.00;3.20;;;;;;;4.94;37.04;100713.38;107401;1254;99173;-66
2023/03/05 11:19:51;;;;;;;7.30;2.90;;;;;;;4.94;37.59;100704.86;107418;1254;97716;-67
2023/03/05 11:22:23;;;;;;;7.20;2.30;;;;;;;5.02;37.89;100703.11;107490;1254;112201;-66
2023/03/05 11:25:04;;;;;;;4.00;2.40;;;;;;;5.07;37.84;100701.34;107432;1254;110021;-66
2023/03/05 11:27:38;;;;;;;5.70;2.20;;;;;;;5.12;37.52;100697.63;107470;1254;106258;-66
2023/03/05 11:30:20;;;;;;;;;;;;;;;5.15;37.80;100691.89;107413;1254;97834;-67
2023/03/05 11:32:49;;;;;;;32.70;3.10;;;;;;;5.20;37.60;100689.80;107438;1258;98376;-66
2023/03/05 11:35:31;;;;;;;11.40;2.50;;;;;;;5.24;37.91;100686.34;107445;1254;111749;-66
2023/03/05 11:38:05;;;;;;;7.80;2.50;;;;;;;5.28;38.08;100689.98;107411;1258;109159;-65